Williamsburg, Pennsylvania
Current Conditions -  °F | °C
As of 4:53 PM on Monday 20 Oct 2014 (Local Time) from KAOO Reporting Station
Overcast Overcast  
Wind Chill: 51°   Ceiling: 7000
Heat Index: 51°   Visibility: 10mi
Dew Point: 41°   Wind: 6mph
Humidity: 68%   Direction: 200°SSW
Pressure: 29.92"   Gusts: NA
Location:  40.46°N, 78.2°W
Report Text: KAOO 202053Z AUTO 20005KT 10SM BKN070 OVC085 11/05 A2992 RMK AO2 RAB1956E41 SLP138 P0000 60000 T01060050 56008
Loading
Personal Weather Stations






























Interactive Weather Map
Tropical Storm Tracking
New forecast layout! Learn more

10-Day Weather Forecast

Advertisements
Track Severe Weather on mobile